sensor_id;sensor_type;location;lat;lon;timestamp;pressure;altitude;pressure_sealevel;temperature;humidity
22647;BME280;11490;42.726;23.268;2024-03-17T00:02:17;95485.69;;;6.95;100.00
22647;BME280;11490;42.726;23.268;2024-03-17T00:04:42;95479.19;;;6.84;100.00
22647;BME280;11490;42.726;23.268;2024-03-17T00:07:08;95478.81;;;6.54;100.00
22647;BME280;11490;42.726;23.268;2024-03-17T00:09:33;95488.19;;;6.64;100.00
22647;BME280;11490;42.726;23.268;2024-03-17T00:11:59;95473.06;;;6.77;100.00
22647;BME280;11490;42.726;23.268;2024-03-17T00:14:25;95475.13;;;6.69;100.00
22647;BME280;11490;42.726;23.268;2024-03-17T00:16:53;95488.13;;;6.90;100.00
22647;BME280;11490;42.726;23.268;2024-03-17T00:19:18;95471.50;;;6.56;100.00
22647;BME280;11490;42.726;23.268;2024-03-17T00:21:44;95475.53;;;6.79;100.00
22647;BME280;11490;42.726;23.268;2024-03-17T00:24:09;95462.16;;;6.34;100.00
22647;BME280;11490;42.726;23.268;2024-03-17T00:26:35;95464.59;;;6.42;100.00
22647;BME280;11490;42.726;23.268;2024-03-17T00:29:00;95481.28;;;6.49;100.00
22647;BME280;11490;42.726;23.268;2024-03-17T00:31:26;95473.53;;;6.54;100.00
22647;BME280;11490;42.726;23.268;2024-03-17T00:33:52;95457.00;;;6.52;100.00
22647;BME280;11490;42.726;23.268;2024-03-17T00:36:17;95483.09;;;6.62;100.00
22647;BME280;11490;42.726;23.268;2024-03-17T00:38:43;95474.72;;;6.58;100.00
22647;BME280;11490;42.726;23.268;2024-03-17T00:41:08;95473.94;;;6.05;100.00
22647;BME280;11490;42.726;23.268;2024-03-17T00:43:34;95477.59;;;5.98;100.00
22647;BME280;11490;42.726;23.268;2024-03-17T00:46:00;95450.72;;;6.07;100.00
22647;BME280;11490;42.726;23.268;2024-03-17T00:48:25;95461.31;;;6.14;100.00
22647;BME280;11490;42.726;23.268;2024-03-17T00:50:57;95486.56;;;6.43;100.00
22647;BME280;11490;42.726;23.268;2024-03-17T00:53:24;95479.66;;;6.09;100.00
22647;BME280;11490;42.726;23.268;2024-03-17T00:55:55;95472.66;;;5.81;100.00
22647;BME280;11490;42.726;23.268;2024-03-17T00:58:25;95485.34;;;6.06;100.00
22647;BME280;11490;42.726;23.268;2024-03-17T01:00:50;95476.59;;;6.38;100.00
22647;BME280;11490;42.726;23.268;2024-03-17T01:03:16;95471.91;;;6.14;100.00
22647;BME280;11490;42.726;23.268;2024-03-17T01:05:42;95475.97;;;5.97;100.00
22647;BME280;11490;42.726;23.268;2024-03-17T01:08:12;95477.63;;;6.24;100.00
22647;BME280;11490;42.726;23.268;2024-03-17T01:10:38;95484.94;;;6.35;100.00
22647;BME280;11490;42.726;23.268;2024-03-17T01:13:06;95483.13;;;6.29;100.00
22647;BME280;11490;42.726;23.268;2024-03-17T01:15:32;95492.50;;;6.38;100.00
22647;BME280;11490;42.726;23.268;2024-03-17T01:17:58;95467.44;;;6.21;100.00
22647;BME280;11490;42.726;23.268;2024-03-17T01:20:25;95485.75;;;6.29;100.00
22647;BME280;11490;42.726;23.268;2024-03-17T01:22:50;95475.19;;;6.16;100.00
22647;BME280;11490;42.726;23.268;2024-03-17T01:25:16;95477.84;;;6.16;100.00
22647;BME280;11490;42.726;23.268;2024-03-17T01:27:41;95434.84;;;6.14;100.00
22647;BME280;11490;42.726;23.268;2024-03-17T01:30:09;95484.94;;;6.29;100.00
22647;BME280;11490;42.726;23.268;2024-03-17T01:32:34;95467.38;;;5.81;100.00
22647;BME280;11490;42.726;23.268;2024-03-17T01:35:00;95466.16;;;5.77;100.00
22647;BME280;11490;42.726;23.268;2024-03-17T01:37:26;95468.59;;;5.72;100.00
22647;BME280;11490;42.726;23.268;2024-03-17T01:39:51;95463.28;;;5.66;100.00
22647;BME280;11490;42.726;23.268;2024-03-17T01:42:17;95467.81;;;5.92;100.00
22647;BME280;11490;42.726;23.268;2024-03-17T01:44:42;95459.69;;;6.00;100.00
22647;BME280;11490;42.726;23.268;2024-03-17T01:47:08;95473.13;;;5.92;100.00
22647;BME280;11490;42.726;23.268;2024-03-17T01:49:34;95444.16;;;5.57;100.00
22647;BME280;11490;42.726;23.268;2024-03-17T01:52:00;95478.41;;;5.98;100.00
22647;BME280;11490;42.726;23.268;2024-03-17T01:54:26;95477.41;;;6.06;100.00
22647;BME280;11490;42.726;23.268;2024-03-17T01:56:51;95472.34;;;6.11;100.00
22647;BME280;11490;42.726;23.268;2024-03-17T01:59:17;95479.84;;;6.01;100.00
22647;BME280;11490;42.726;23.268;2024-03-17T02:01:42;95478.19;;;5.87;100.00
22647;BME280;11490;42.726;23.268;2024-03-17T02:04:08;95452.69;;;5.59;100.00
22647;BME280;11490;42.726;23.268;2024-03-17T02:06:33;95479.59;;;5.82;100.00
22647;BME280;11490;42.726;23.268;2024-03-17T02:08:59;95472.28;;;5.85;100.00
22647;BME280;11490;42.726;23.268;2024-03-17T02:11:31;95480.22;;;5.85;100.00
22647;BME280;11490;42.726;23.268;2024-03-17T02:13:58;95456.38;;;5.65;100.00
22647;BME280;11490;42.726;23.268;2024-03-17T02:16:23;95469.00;;;5.69;100.00
22647;BME280;11490;42.726;23.268;2024-03-17T02:18:54;95486.50;;;5.70;100.00
22647;BME280;11490;42.726;23.268;2024-03-17T02:21:20;95419.25;;;5.19;100.00
22647;BME280;11490;42.726;23.268;2024-03-17T02:23:48;95456.25;;;5.19;100.00
22647;BME280;11490;42.726;23.268;2024-03-17T02:26:13;95478.72;;;5.49;100.00
22647;BME280;11490;42.726;23.268;2024-03-17T02:28:43;95452.66;;;5.46;100.00
22647;BME280;11490;42.726;23.268;2024-03-17T02:31:10;95481.94;;;5.38;100.00
22647;BME280;11490;42.726;23.268;2024-03-17T02:33:36;95476.31;;;5.61;100.00
22647;BME280;11490;42.726;23.268;2024-03-17T02:36:03;95461.59;;;5.38;100.00
22647;BME280;11490;42.726;23.268;2024-03-17T02:38:40;95464.88;;;5.47;100.00
22647;BME280;11490;42.726;23.268;2024-03-17T02:41:25;95469.34;;;5.53;100.00
22647;BME280;11490;42.726;23.268;2024-03-17T02:43:50;95456.28;;;5.25;100.00
22647;BME280;11490;42.726;23.268;2024-03-17T02:46:17;95456.03;;;5.27;100.00
22647;BME280;11490;42.726;23.268;2024-03-17T02:48:50;95451.84;;;5.39;100.00
22647;BME280;11490;42.726;23.268;2024-03-17T02:51:18;95439.81;;;5.43;100.00
22647;BME280;11490;42.726;23.268;2024-03-17T02:53:45;95462.06;;;5.68;100.00
22647;BME280;11490;42.726;23.268;2024-03-17T02:56:11;95460.81;;;5.51;100.00
22647;BME280;11490;42.726;23.268;2024-03-17T02:58:37;95457.56;;;5.56;100.00
22647;BME280;11490;42.726;23.268;2024-03-17T03:01:04;95452.28;;;5.49;100.00
22647;BME280;11490;42.726;23.268;2024-03-17T03:03:33;95446.56;;;5.46;100.00
22647;BME280;11490;42.726;23.268;2024-03-17T03:05:59;95468.19;;;5.75;100.00
22647;BME280;11490;42.726;23.268;2024-03-17T03:08:30;95457.19;;;5.72;100.00
22647;BME280;11490;42.726;23.268;2024-03-17T03:10:55;95450.00;;;5.39;100.00
22647;BME280;11490;42.726;23.268;2024-03-17T03:13:21;95412.16;;;5.32;100.00
22647;BME280;11490;42.726;23.268;2024-03-17T03:15:48;95457.69;;;5.28;100.00
22647;BME280;11490;42.726;23.268;2024-03-17T03:18:14;95451.84;;;5.52;100.00
22647;BME280;11490;42.726;23.268;2024-03-17T03:20:40;95442.03;;;5.26;100.00
22647;BME280;11490;42.726;23.268;2024-03-17T03:23:05;95447.75;;;5.43;100.00
22647;BME280;11490;42.726;23.268;2024-03-17T03:25:31;95452.47;;;5.54;100.00
22647;BME280;11490;42.726;23.268;2024-03-17T03:27:56;95466.50;;;5.48;100.00
22647;BME280;11490;42.726;23.268;2024-03-17T03:30:23;95467.97;;;5.57;100.00
22647;BME280;11490;42.726;23.268;2024-03-17T03:32:48;95467.72;;;5.52;100.00
22647;BME280;11490;42.726;23.268;2024-03-17T03:35:14;95464.44;;;5.37;100.00
22647;BME280;11490;42.726;23.268;2024-03-17T03:37:40;95466.44;;;5.35;100.00
22647;BME280;11490;42.726;23.268;2024-03-17T03:40:07;95470.97;;;5.41;100.00
22647;BME280;11490;42.726;23.268;2024-03-17T03:42:45;95451.38;;;5.22;100.00
22647;BME280;11490;42.726;23.268;2024-03-17T03:45:10;95462.38;;;5.26;100.00
22647;BME280;11490;42.726;23.268;2024-03-17T03:47:39;95481.47;;;5.28;100.00
22647;BME280;11490;42.726;23.268;2024-03-17T03:50:14;95460.66;;;5.05;100.00
22647;BME280;11490;42.726;23.268;2024-03-17T03:52:39;95486.34;;;5.18;100.00
22647;BME280;11490;42.726;23.268;2024-03-17T03:55:09;95483.41;;;4.99;100.00
22647;BME280;11490;42.726;23.268;2024-03-17T03:57:43;95479.81;;;5.14;100.00
22647;BME280;11490;42.726;23.268;2024-03-17T04:00:18;95470.28;;;4.78;100.00
22647;BME280;11490;42.726;23.268;2024-03-17T04:02:47;95493.91;;;4.86;100.00
22647;BME280;11490;42.726;23.268;2024-03-17T04:05:13;95480.94;;;4.91;100.00
22647;BME280;11490;42.726;23.268;2024-03-17T04:07:39;95438.06;;;4.55;100.00
22647;BME280;11490;42.726;23.268;2024-03-17T04:10:06;95486.38;;;4.83;100.00
22647;BME280;11490;42.726;23.268;2024-03-17T04:12:31;95467.72;;;4.57;100.00
22647;BME280;11490;42.726;23.268;2024-03-17T04:14:57;95447.91;;;4.12;100.00
22647;BME280;11490;42.726;23.268;2024-03-17T04:17:22;95481.66;;;4.16;100.00
22647;BME280;11490;42.726;23.268;2024-03-17T04:19:49;95463.44;;;4.21;100.00
22647;BME280;11490;42.726;23.268;2024-03-17T04:22:18;95491.59;;;4.42;100.00
22647;BME280;11490;42.726;23.268;2024-03-17T04:24:44;95502.31;;;4.62;100.00
22647;BME280;11490;42.726;23.268;2024-03-17T04:27:09;95501.03;;;4.58;100.00
22647;BME280;11490;42.726;23.268;2024-03-17T04:29:35;95517.50;;;4.25;100.00
22647;BME280;11490;42.726;23.268;2024-03-17T04:32:00;95464.47;;;3.99;100.00
22647;BME280;11490;42.726;23.268;2024-03-17T04:34:27;95501.19;;;4.22;100.00
22647;BME280;11490;42.726;23.268;2024-03-17T04:36:52;95514.53;;;4.42;100.00
22647;BME280;11490;42.726;23.268;2024-03-17T04:39:19;95503.41;;;4.46;100.00
22647;BME280;11490;42.726;23.268;2024-03-17T04:41:45;95510.66;;;4.65;100.00
22647;BME280;11490;42.726;23.268;2024-03-17T04:44:10;95522.19;;;4.92;100.00
22647;BME280;11490;42.726;23.268;2024-03-17T04:46:36;95528.66;;;4.83;100.00
22647;BME280;11490;42.726;23.268;2024-03-17T04:49:01;95502.38;;;4.75;100.00
22647;BME280;11490;42.726;23.268;2024-03-17T04:51:29;95523.94;;;4.72;100.00
22647;BME280;11490;42.726;23.268;2024-03-17T04:53:54;95547.47;;;5.01;100.00
22647;BME280;11490;42.726;23.268;2024-03-17T04:56:19;95537.13;;;5.07;100.00
22647;BME280;11490;42.726;23.268;2024-03-17T04:58:45;95521.38;;;4.92;100.00
22647;BME280;11490;42.726;23.268;2024-03-17T05:01:10;95541.56;;;4.99;100.00
22647;BME280;11490;42.726;23.268;2024-03-17T05:03:36;95554.13;;;4.97;100.00
22647;BME280;11490;42.726;23.268;2024-03-17T05:06:02;95547.69;;;5.07;100.00
22647;BME280;11490;42.726;23.268;2024-03-17T05:08:29;95557.94;;;5.23;100.00
22647;BME280;11490;42.726;23.268;2024-03-17T05:10:59;95529.97;;;5.00;100.00
22647;BME280;11490;42.726;23.268;2024-03-17T05:13:28;95543.53;;;5.25;100.00
22647;BME280;11490;42.726;23.268;2024-03-17T05:15:54;95558.59;;;5.25;100.00
22647;BME280;11490;42.726;23.268;2024-03-17T05:18:19;95556.72;;;5.19;100.00
22647;BME280;11490;42.726;23.268;2024-03-17T05:20:46;95571.84;;;5.38;100.00
22647;BME280;11490;42.726;23.268;2024-03-17T05:23:13;95560.91;;;5.41;100.00
22647;BME280;11490;42.726;23.268;2024-03-17T05:25:39;95547.25;;;5.44;100.00
22647;BME280;11490;42.726;23.268;2024-03-17T05:28:04;95569.94;;;5.73;100.00
22647;BME280;11490;42.726;23.268;2024-03-17T05:30:30;95564.75;;;5.93;100.00
22647;BME280;11490;42.726;23.268;2024-03-17T05:32:56;95567.22;;;6.01;100.00
22647;BME280;11490;42.726;23.268;2024-03-17T05:35:21;95552.97;;;6.02;100.00
22647;BME280;11490;42.726;23.268;2024-03-17T05:37:48;95577.66;;;6.22;100.00
22647;BME280;11490;42.726;23.268;2024-03-17T05:40:14;95568.94;;;6.41;100.00
22647;BME280;11490;42.726;23.268;2024-03-17T05:42:43;95561.16;;;6.46;100.00
22647;BME280;11490;42.726;23.268;2024-03-17T05:45:09;95551.78;;;6.50;100.00
22647;BME280;11490;42.726;23.268;2024-03-17T05:47:37;95569.72;;;6.75;100.00
22647;BME280;11490;42.726;23.268;2024-03-17T05:50:03;95548.94;;;6.85;100.00
22647;BME280;11490;42.726;23.268;2024-03-17T05:52:28;95549.69;;;7.18;100.00
22647;BME280;11490;42.726;23.268;2024-03-17T05:54:54;95552.25;;;7.45;100.00
22647;BME280;11490;42.726;23.268;2024-03-17T05:57:21;95535.97;;;7.79;100.00
22647;BME280;11490;42.726;23.268;2024-03-17T05:59:48;95528.66;;;8.13;100.00
22647;BME280;11490;42.726;23.268;2024-03-17T06:02:13;95560.50;;;8.75;97.96
22647;BME280;11490;42.726;23.268;2024-03-17T06:04:40;95579.06;;;9.25;95.69
22647;BME280;11490;42.726;23.268;2024-03-17T06:07:05;95578.78;;;9.70;93.50
22647;BME280;11490;42.726;23.268;2024-03-17T06:09:31;95573.28;;;10.19;91.36
22647;BME280;11490;42.726;23.268;2024-03-17T06:11:57;95559.72;;;10.51;87.93
22647;BME280;11490;42.726;23.268;2024-03-17T06:14:22;95575.75;;;10.86;86.52
22647;BME280;11490;42.726;23.268;2024-03-17T06:16:47;95598.19;;;11.19;84.14
22647;BME280;11490;42.726;23.268;2024-03-17T06:19:13;95597.22;;;11.72;82.80
22647;BME280;11490;42.726;23.268;2024-03-17T06:21:41;95588.16;;;11.97;81.07
22647;BME280;11490;42.726;23.268;2024-03-17T06:24:07;95608.22;;;12.39;79.57
22647;BME280;11490;42.726;23.268;2024-03-17T06:26:33;95589.22;;;12.24;79.62
22647;BME280;11490;42.726;23.268;2024-03-17T06:29:02;95573.16;;;12.07;77.91
22647;BME280;11490;42.726;23.268;2024-03-17T06:31:27;95605.09;;;12.14;78.84
22647;BME280;11490;42.726;23.268;2024-03-17T06:33:53;95607.59;;;11.34;80.90
22647;BME280;11490;42.726;23.268;2024-03-17T06:36:18;95616.16;;;11.71;81.61
22647;BME280;11490;42.726;23.268;2024-03-17T06:38:44;95613.94;;;12.03;80.67
22647;BME280;11490;42.726;23.268;2024-03-17T06:41:11;95611.63;;;11.94;80.47
22647;BME280;11490;42.726;23.268;2024-03-17T06:43:43;95611.91;;;11.35;81.66
22647;BME280;11490;42.726;23.268;2024-03-17T06:46:08;95609.13;;;11.53;81.71
22647;BME280;11490;42.726;23.268;2024-03-17T06:48:34;95577.09;;;11.30;80.98
22647;BME280;11490;42.726;23.268;2024-03-17T06:51:00;95567.91;;;11.02;81.76
22647;BME280;11490;42.726;23.268;2024-03-17T06:53:25;95587.94;;;10.10;85.21
22647;BME280;11490;42.726;23.268;2024-03-17T06:55:58;95597.56;;;9.93;86.78
22647;BME280;11490;42.726;23.268;2024-03-17T06:58:25;95595.66;;;10.18;87.40
22647;BME280;11490;42.726;23.268;2024-03-17T07:01:01;95609.88;;;10.42;87.83
22647;BME280;11490;42.726;23.268;2024-03-17T07:03:29;95606.19;;;10.55;87.86
22647;BME280;11490;42.726;23.268;2024-03-17T07:05:56;95601.81;;;10.30;89.94
22647;BME280;11490;42.726;23.268;2024-03-17T07:08:22;95624.28;;;10.94;87.73
22647;BME280;11490;42.726;23.268;2024-03-17T07:10:58;95581.94;;;11.33;85.03
22647;BME280;11490;42.726;23.268;2024-03-17T07:13:24;95595.53;;;11.43;83.46
22647;BME280;11490;42.726;23.268;2024-03-17T07:15:49;95590.53;;;11.35;83.26
22647;BME280;11490;42.726;23.268;2024-03-17T07:18:15;95605.41;;;11.42;84.16
22647;BME280;11490;42.726;23.268;2024-03-17T07:20:41;95597.50;;;11.12;84.54
22647;BME280;11490;42.726;23.268;2024-03-17T07:23:06;95622.66;;;10.93;86.36
22647;BME280;11490;42.726;23.268;2024-03-17T07:25:33;95606.53;;;10.88;87.15
22647;BME280;11490;42.726;23.268;2024-03-17T07:27:59;95615.22;;;10.95;86.04
22647;BME280;11490;42.726;23.268;2024-03-17T07:30:24;95610.72;;;10.54;87.17
22647;BME280;11490;42.726;23.268;2024-03-17T07:32:49;95588.16;;;10.27;86.92
22647;BME280;11490;42.726;23.268;2024-03-17T07:35:15;95600.22;;;10.11;90.33
22647;BME280;11490;42.726;23.268;2024-03-17T07:37:40;95585.75;;;9.89;90.78
22647;BME280;11490;42.726;23.268;2024-03-17T07:40:06;95608.34;;;10.16;89.62
22647;BME280;11490;42.726;23.268;2024-03-17T07:42:32;95627.53;;;10.25;89.57
22647;BME280;11490;42.726;23.268;2024-03-17T07:44:58;95594.13;;;9.74;90.35
22647;BME280;11490;42.726;23.268;2024-03-17T07:47:24;95619.78;;;10.05;90.78
22647;BME280;11490;42.726;23.268;2024-03-17T07:49:49;95591.69;;;9.73;90.76
22647;BME280;11490;42.726;23.268;2024-03-17T07:52:14;95598.31;;;9.63;91.16
22647;BME280;11490;42.726;23.268;2024-03-17T07:54:41;95626.31;;;9.91;91.79
22647;BME280;11490;42.726;23.268;2024-03-17T07:57:06;95580.72;;;9.62;92.38
22647;BME280;11490;42.726;23.268;2024-03-17T07:59:34;95618.22;;;9.79;92.58
22647;BME280;11490;42.726;23.268;2024-03-17T08:01:59;95607.13;;;9.82;92.99
22647;BME280;11490;42.726;23.268;2024-03-17T08:04:25;95592.84;;;9.77;92.96
22647;BME280;11490;42.726;23.268;2024-03-17T08:06:50;95606.69;;;9.85;92.64
22647;BME280;11490;42.726;23.268;2024-03-17T08:09:16;95615.19;;;9.94;92.93
22647;BME280;11490;42.726;23.268;2024-03-17T08:11:41;95579.78;;;9.75;92.19
22647;BME280;11490;42.726;23.268;2024-03-17T08:14:11;95604.09;;;9.60;93.94
22647;BME280;11490;42.726;23.268;2024-03-17T08:16:37;95590.94;;;9.65;95.04
22647;BME280;11490;42.726;23.268;2024-03-17T08:19:02;95560.25;;;9.93;93.74
22647;BME280;11490;42.726;23.268;2024-03-17T08:21:28;95596.16;;;10.38;92.90
22647;BME280;11490;42.726;23.268;2024-03-17T08:23:55;95563.41;;;10.50;92.39
22647;BME280;11490;42.726;23.268;2024-03-17T08:26:20;95600.75;;;11.03;91.63
22647;BME280;11490;42.726;23.268;2024-03-17T08:28:46;95589.16;;;11.21;90.35
22647;BME280;11490;42.726;23.268;2024-03-17T08:31:11;95588.91;;;11.34;87.07
22647;BME280;11490;42.726;23.268;2024-03-17T08:33:38;95554.78;;;11.36;88.01
22647;BME280;11490;42.726;23.268;2024-03-17T08:36:06;95593.78;;;11.83;86.64
22647;BME280;11490;42.726;23.268;2024-03-17T08:38:35;95596.03;;;12.31;82.28
22647;BME280;11490;42.726;23.268;2024-03-17T08:41:05;95599.69;;;12.54;82.09
22647;BME280;11490;42.726;23.268;2024-03-17T08:43:31;95573.41;;;12.51;82.35
22647;BME280;11490;42.726;23.268;2024-03-17T08:46:02;95573.91;;;12.64;82.79
22647;BME280;11490;42.726;23.268;2024-03-17T08:48:29;95601.38;;;13.05;80.26
22647;BME280;11490;42.726;23.268;2024-03-17T08:50:56;95542.81;;;12.92;78.20
22647;BME280;11490;42.726;23.268;2024-03-17T08:53:23;95549.44;;;13.39;78.56
22647;BME280;11490;42.726;23.268;2024-03-17T08:55:49;95541.47;;;13.88;76.84
22647;BME280;11490;42.726;23.268;2024-03-17T08:58:15;95570.66;;;14.28;76.33
22647;BME280;11490;42.726;23.268;2024-03-17T09:00:41;95546.16;;;13.98;73.99
22647;BME280;11490;42.726;23.268;2024-03-17T09:03:08;95551.59;;;14.78;76.84
22647;BME280;11490;42.726;23.268;2024-03-17T09:05:37;95560.28;;;14.90;70.43
22647;BME280;11490;42.726;23.268;2024-03-17T09:08:03;95558.00;;;15.46;72.27
22647;BME280;11490;42.726;23.268;2024-03-17T09:10:29;95566.91;;;15.47;69.79
22647;BME280;11490;42.726;23.268;2024-03-17T09:12:54;95525.63;;;15.26;70.58
22647;BME280;11490;42.726;23.268;2024-03-17T09:15:20;95577.44;;;16.00;70.22
22647;BME280;11490;42.726;23.268;2024-03-17T09:17:46;95556.84;;;15.69;67.44
22647;BME280;11490;42.726;23.268;2024-03-17T09:20:12;95511.19;;;15.37;67.12
22647;BME280;11490;42.726;23.268;2024-03-17T09:22:42;95563.78;;;15.60;70.69
22647;BME280;11490;42.726;23.268;2024-03-17T09:25:08;95538.84;;;15.79;71.90
22647;BME280;11490;42.726;23.268;2024-03-17T09:27:34;95531.91;;;15.89;66.91
22647;BME280;11490;42.726;23.268;2024-03-17T09:30:05;95545.50;;;16.24;67.39
22647;BME280;11490;42.726;23.268;2024-03-17T09:32:34;95507.63;;;15.68;69.40
22647;BME280;11490;42.726;23.268;2024-03-17T09:34:59;95516.41;;;16.16;68.57
22647;BME280;11490;42.726;23.268;2024-03-17T09:37:25;95531.53;;;16.37;71.73
22647;BME280;11490;42.726;23.268;2024-03-17T09:39:50;95509.72;;;16.34;64.63
22647;BME280;11490;42.726;23.268;2024-03-17T09:42:19;95500.19;;;15.91;65.57
22647;BME280;11490;42.726;23.268;2024-03-17T09:44:48;95535.81;;;16.23;66.38
22647;BME280;11490;42.726;23.268;2024-03-17T09:47:20;95494.28;;;15.99;66.27
22647;BME280;11490;42.726;23.268;2024-03-17T09:49:50;95547.72;;;15.80;66.22
22647;BME280;11490;42.726;23.268;2024-03-17T09:52:23;95536.72;;;15.76;67.06
22647;BME280;11490;42.726;23.268;2024-03-17T09:54:54;95519.84;;;15.49;68.67
22647;BME280;11490;42.726;23.268;2024-03-17T09:57:22;95527.25;;;15.27;69.41
22647;BME280;11490;42.726;23.268;2024-03-17T09:59:53;95472.81;;;15.05;68.16
22647;BME280;11490;42.726;23.268;2024-03-17T10:02:22;95511.16;;;15.32;69.91
22647;BME280;11490;42.726;23.268;2024-03-17T10:04:48;95523.69;;;15.53;67.76
22647;BME280;11490;42.726;23.268;2024-03-17T10:07:14;95496.53;;;15.13;65.37
22647;BME280;11490;42.726;23.268;2024-03-17T10:09:40;95549.28;;;15.24;68.76
22647;BME280;11490;42.726;23.268;2024-03-17T10:12:25;95498.38;;;14.70;69.03
22647;BME280;11490;42.726;23.268;2024-03-17T10:14:58;95517.97;;;15.08;69.66
22647;BME280;11490;42.726;23.268;2024-03-17T10:17:31;95494.63;;;14.44;67.87
22647;BME280;11490;42.726;23.268;2024-03-17T10:20:16;95545.59;;;15.03;69.67
22647;BME280;11490;42.726;23.268;2024-03-17T10:25:27;95548.59;;;15.07;66.79
22647;BME280;11490;42.726;23.268;2024-03-17T10:27:53;95526.06;;;15.13;67.64
22647;BME280;11490;42.726;23.268;2024-03-17T10:30:19;95510.63;;;15.35;67.43
22647;BME280;11490;42.726;23.268;2024-03-17T10:32:45;95543.56;;;15.57;69.33
22647;BME280;11490;42.726;23.268;2024-03-17T10:35:31;95547.28;;;15.51;68.96
22647;BME280;11490;42.726;23.268;2024-03-17T10:37:58;95484.72;;;15.14;67.93
22647;BME280;11490;42.726;23.268;2024-03-17T10:40:25;95529.59;;;15.18;67.21
22647;BME280;11490;42.726;23.268;2024-03-17T10:42:51;95483.50;;;14.94;67.80
22647;BME280;11490;42.726;23.268;2024-03-17T10:45:16;95501.31;;;15.06;64.55
22647;BME280;11490;42.726;23.268;2024-03-17T10:47:50;95483.31;;;15.06;67.23
22647;BME280;11490;42.726;23.268;2024-03-17T10:50:20;95503.44;;;15.46;66.15
22647;BME280;11490;42.726;23.268;2024-03-17T10:52:48;95518.38;;;15.68;64.58
22647;BME280;11490;42.726;23.268;2024-03-17T10:55:23;95535.31;;;15.69;64.42
22647;BME280;11490;42.726;23.268;2024-03-17T10:57:53;95522.31;;;15.14;62.87
22647;BME280;11490;42.726;23.268;2024-03-17T11:00:21;95518.69;;;15.35;65.02
22647;BME280;11490;42.726;23.268;2024-03-17T11:02:52;95476.22;;;15.32;63.07
22647;BME280;11490;42.726;23.268;2024-03-17T11:05:21;95476.81;;;15.39;62.94
22647;BME280;11490;42.726;23.268;2024-03-17T11:07:49;95519.59;;;15.51;62.92
22647;BME280;11490;42.726;23.268;2024-03-17T11:12:59;95503.94;;;15.43;62.51
22647;BME280;11490;42.726;23.268;2024-03-17T11:17:54;95493.16;;;15.85;60.49
22647;BME280;11490;42.726;23.268;2024-03-17T11:20:24;95473.72;;;15.67;54.23
22647;BME280;11490;42.726;23.268;2024-03-17T11:22:54;95494.91;;;16.31;53.71
22647;BME280;11490;42.726;23.268;2024-03-17T11:28:07;95495.19;;;16.45;55.21
22647;BME280;11490;42.726;23.268;2024-03-17T11:30:55;95443.78;;;16.36;58.19
22647;BME280;11490;42.726;23.268;2024-03-17T11:39:07;95493.31;;;16.40;55.42
22647;BME280;11490;42.726;23.268;2024-03-17T11:41:43;95486.53;;;16.12;58.05
22647;BME280;11490;42.726;23.268;2024-03-17T11:47:06;95479.72;;;15.85;56.00
22647;BME280;11490;42.726;23.268;2024-03-17T11:52:08;95494.69;;;15.65;60.05
22647;BME280;11490;42.726;23.268;2024-03-17T11:54:35;95471.59;;;15.79;58.42
22647;BME280;11490;42.726;23.268;2024-03-17T11:59:26;95491.38;;;15.48;57.45
22647;BME280;11490;42.726;23.268;2024-03-17T12:01:52;95468.38;;;15.25;58.51
22647;BME280;11490;42.726;23.268;2024-03-17T12:04:20;95467.94;;;15.49;58.41
22647;BME280;11490;42.726;23.268;2024-03-17T12:12:09;95473.56;;;15.37;60.83
22647;BME280;11490;42.726;23.268;2024-03-17T12:14:38;95449.47;;;15.05;59.96
22647;BME280;11490;42.726;23.268;2024-03-17T12:17:06;95458.81;;;14.97;62.56
22647;BME280;11490;42.726;23.268;2024-03-17T12:19:54;95460.28;;;15.15;62.68
22647;BME280;11490;42.726;23.268;2024-03-17T12:22:22;95471.34;;;15.24;64.23
22647;BME280;11490;42.726;23.268;2024-03-17T12:24:52;95458.41;;;15.21;64.20
22647;BME280;11490;42.726;23.268;2024-03-17T12:27:22;95462.69;;;15.17;63.72
22647;BME280;11490;42.726;23.268;2024-03-17T12:29:52;95447.03;;;15.03;63.96
22647;BME280;11490;42.726;23.268;2024-03-17T12:32:21;95469.41;;;15.14;64.24
22647;BME280;11490;42.726;23.268;2024-03-17T12:34:50;95455.41;;;15.12;67.66
22647;BME280;11490;42.726;23.268;2024-03-17T12:37:21;95456.03;;;15.29;66.96
22647;BME280;11490;42.726;23.268;2024-03-17T12:39:47;95466.00;;;15.34;67.35
22647;BME280;11490;42.726;23.268;2024-03-17T12:42:16;95454.59;;;15.12;66.25
22647;BME280;11490;42.726;23.268;2024-03-17T12:44:49;95452.84;;;14.90;69.16
22647;BME280;11490;42.726;23.268;2024-03-17T12:47:16;95457.19;;;14.96;67.98
22647;BME280;11490;42.726;23.268;2024-03-17T12:49:46;95462.56;;;14.96;68.93
22647;BME280;11490;42.726;23.268;2024-03-17T12:54:44;95463.22;;;15.14;67.44
22647;BME280;11490;42.726;23.268;2024-03-17T12:57:20;95455.88;;;14.99;68.63
22647;BME280;11490;42.726;23.268;2024-03-17T13:00:16;95437.31;;;14.92;69.20
22647;BME280;11490;42.726;23.268;2024-03-17T13:02:58;95432.44;;;14.89;69.52
22647;BME280;11490;42.726;23.268;2024-03-17T13:05:23;95447.13;;;14.77;69.61
22647;BME280;11490;42.726;23.268;2024-03-17T13:07:49;95444.38;;;14.72;69.21
22647;BME280;11490;42.726;23.268;2024-03-17T13:10:22;95448.06;;;14.97;69.29
22647;BME280;11490;42.726;23.268;2024-03-17T13:12:48;95442.13;;;14.90;68.42
22647;BME280;11490;42.726;23.268;2024-03-17T13:15:23;95452.03;;;14.90;68.84
22647;BME280;11490;42.726;23.268;2024-03-17T13:17:48;95437.78;;;14.84;69.41
22647;BME280;11490;42.726;23.268;2024-03-17T13:20:17;95438.53;;;14.80;68.92
22647;BME280;11490;42.726;23.268;2024-03-17T13:22:43;95438.75;;;14.68;69.68
22647;BME280;11490;42.726;23.268;2024-03-17T13:25:14;95443.72;;;14.91;68.96